Time;durP1;ratioP1;P1;durP2;ratioP2;P2;SDS_P1;SDS_P2;PMS_P1;PMS_P2;Temp;Humidity;BMP_temperature;BMP_pressure;BME280_temperature;BME280_humidity;BME280_pressure;Samples;Min_cycle;Max_cycle;Signal;HPM_P1;HPM_P2
2021/05/10 00:02:24;;;;;;;17.02;9.55;;;;;;;15.54;86.58;100079.31;5037322;28;20402;-71
2021/05/10 00:04:52;;;;;;;15.15;8.63;;;;;;;15.49;87.11;100072.44;5019840;28;20053;-71
2021/05/10 00:07:19;;;;;;;14.20;8.43;;;;;;;15.49;86.57;100071.53;5018236;28;20062;-71
2021/05/10 00:09:47;;;;;;;14.48;8.85;;;;;;;15.50;86.54;100081.34;5021562;28;20061;-72
2021/05/10 00:12:14;;;;;;;16.20;9.18;;;;;;;15.47;86.28;100081.53;5017439;28;20060;-71
2021/05/10 00:14:43;;;;;;;14.43;9.10;;;;;;;15.48;86.08;100076.06;5021094;28;20063;-72
2021/05/10 00:17:10;;;;;;;13.93;8.73;;;;;;;15.46;86.14;100086.06;5015840;28;20049;-71
2021/05/10 00:19:37;;;;;;;13.93;8.05;;;;;;;15.42;86.56;100075.59;5020964;28;20065;-72
2021/05/10 00:22:05;;;;;;;12.57;8.20;;;;;;;15.38;86.61;100064.19;5018377;28;20445;-71
2021/05/10 00:24:34;;;;;;;14.90;7.65;;;;;;;15.37;86.69;100075.03;5021213;28;20049;-71
2021/05/10 00:27:00;;;;;;;13.02;8.20;;;;;;;15.32;86.66;100065.44;5020166;28;20060;-71
2021/05/10 00:29:27;;;;;;;16.30;8.60;;;;;;;15.32;86.74;100072.63;5018728;28;20084;-71
2021/05/10 00:31:54;;;;;;;16.30;8.57;;;;;;;15.44;85.10;100073.66;5019942;28;20178;-71
2021/05/10 00:34:21;;;;;;;14.40;7.97;;;;;;;15.43;85.11;100070.13;5018238;28;20088;-72
2021/05/10 00:36:48;;;;;;;15.07;7.93;;;;;;;15.40;84.77;100058.72;5019937;28;20061;-71
2021/05/10 00:39:15;;;;;;;15.05;8.20;;;;;;;15.40;83.92;100047.97;5019461;28;20061;-71
2021/05/10 00:41:42;;;;;;;12.85;7.80;;;;;;;15.41;84.88;100050.56;5019869;28;20065;-71
2021/05/10 00:44:09;;;;;;;12.90;7.60;;;;;;;15.46;85.01;100044.84;5019248;28;20070;-71
2021/05/10 00:46:37;;;;;;;11.52;7.55;;;;;;;15.40;85.55;100043.44;5017800;28;20053;-71
2021/05/10 00:49:04;;;;;;;11.10;7.60;;;;;;;15.36;85.77;100041.03;5017948;28;20144;-71
2021/05/10 00:51:31;;;;;;;14.60;7.97;;;;;;;15.37;85.19;100042.78;5021542;28;20320;-71
2021/05/10 00:53:58;;;;;;;13.90;7.95;;;;;;;15.39;85.51;100048.91;5016424;28;20110;-71
2021/05/10 00:56:25;;;;;;;13.40;8.13;;;;;;;15.39;85.33;100052.47;5014017;28;20061;-72
2021/05/10 00:58:52;;;;;;;12.52;8.23;;;;;;;15.42;85.46;100041.50;5014248;28;20073;-71
2021/05/10 01:01:19;;;;;;;14.10;7.97;;;;;;;15.41;85.43;100046.97;5021547;28;20062;-68
2021/05/10 01:03:49;;;;;;;15.70;8.27;;;;;;;15.41;85.50;100046.97;5016773;28;20107;-68
2021/05/10 01:06:16;;;;;;;15.07;8.82;;;;;;;15.37;86.17;100051.69;5019066;28;20252;-68
2021/05/10 01:08:43;;;;;;;15.30;8.68;;;;;;;15.37;86.10;100030.19;5018684;28;20286;-69
2021/05/10 01:11:10;;;;;;;15.05;8.57;;;;;;;15.35;86.53;100037.50;5018830;28;20465;-68
2021/05/10 01:13:38;;;;;;;15.07;8.38;;;;;;;15.30;86.56;100026.19;5018706;28;20061;-68
2021/05/10 01:16:05;;;;;;;15.40;8.32;;;;;;;15.30;86.37;100024.34;5017722;28;20171;-68
2021/05/10 01:18:32;;;;;;;15.68;9.32;;;;;;;15.27;86.54;100021.88;5018436;28;20196;-69
2021/05/10 01:21:00;;;;;;;13.45;8.25;;;;;;;15.28;86.55;100017.34;5017692;28;20365;-68
2021/05/10 01:23:28;;;;;;;15.30;8.35;;;;;;;15.27;85.83;100016.50;5018192;28;20152;-68
2021/05/10 01:25:56;;;;;;;15.95;8.82;;;;;;;15.24;86.78;100018.53;5018062;28;20404;-68
2021/05/10 01:28:23;;;;;;;13.65;8.52;;;;;;;15.23;86.64;100028.41;5019432;28;20055;-68
2021/05/10 01:30:51;;;;;;;17.77;11.00;;;;;;;15.18;86.58;100010.84;5015743;28;20061;-68
2021/05/10 01:33:19;;;;;;;12.35;8.02;;;;;;;15.13;86.59;100008.44;5020306;28;20064;-68
2021/05/10 01:35:50;;;;;;;15.88;8.50;;;;;;;15.11;87.03;100005.00;5015137;28;20364;-68
2021/05/10 01:38:18;;;;;;;13.45;7.95;;;;;;;15.10;87.10;100006.84;5020846;28;20084;-68
2021/05/10 01:40:47;;;;;;;15.65;8.50;;;;;;;15.13;86.79;100000.41;5016990;28;20057;-69
2021/05/10 01:43:16;;;;;;;12.52;6.97;;;;;;;15.11;86.83;99995.13;5018477;28;20451;-68
2021/05/10 01:45:43;;;;;;;15.23;8.23;;;;;;;15.07;86.97;99990.06;5016854;28;20061;-68
2021/05/10 01:48:12;;;;;;;14.02;8.93;;;;;;;15.03;87.66;99999.25;5017841;28;20057;-68
2021/05/10 01:50:40;;;;;;;12.65;7.63;;;;;;;15.02;87.35;99984.13;5016660;28;20068;-68
2021/05/10 01:53:08;;;;;;;14.15;7.30;;;;;;;15.06;86.78;99970.38;5017713;28;20057;-68
2021/05/10 01:55:36;;;;;;;14.48;7.30;;;;;;;15.05;87.18;99967.78;5016741;28;20060;-68
2021/05/10 01:58:05;;;;;;;12.20;7.97;;;;;;;14.99;87.29;99957.44;5015681;28;20049;-68
2021/05/10 02:00:33;;;;;;;13.35;7.30;;;;;;;15.03;86.65;99953.59;5032904;28;20084;-68
2021/05/10 02:03:01;;;;;;;14.25;8.02;;;;;;;14.96;86.85;99950.44;5017462;28;20505;-68
2021/05/10 02:05:28;;;;;;;13.15;8.10;;;;;;;14.97;87.02;99951.31;5016457;28;20937;-68
2021/05/10 02:07:57;;;;;;;13.23;6.75;;;;;;;14.91;86.99;99949.88;5016583;28;20429;-68
2021/05/10 02:10:27;;;;;;;13.45;7.28;;;;;;;14.91;86.95;99952.56;5017834;28;20100;-68
2021/05/10 02:12:55;;;;;;;13.88;6.78;;;;;;;14.91;86.38;99950.75;5015183;28;20463;-68
2021/05/10 02:15:24;;;;;;;12.40;6.90;;;;;;;14.87;86.66;99935.78;5015587;28;20065;-70
2021/05/10 02:17:51;;;;;;;12.32;6.63;;;;;;;14.91;86.53;99933.75;5013718;28;20049;-71
2021/05/10 02:20:19;;;;;;;15.82;7.10;;;;;;;14.90;86.17;99930.22;5020293;28;20328;-70
2021/05/10 02:22:51;;;;;;;11.63;7.13;;;;;;;14.87;86.14;99926.88;5015607;28;20073;-71
2021/05/10 02:25:19;;;;;;;13.30;7.45;;;;;;;14.87;85.81;99914.28;5017745;28;20156;-71
2021/05/10 02:27:46;;;;;;;12.30;6.70;;;;;;;14.90;85.86;99911.41;5015846;28;20065;-71
2021/05/10 02:30:14;;;;;;;12.15;6.85;;;;;;;14.90;85.67;99907.88;5018834;28;20111;-71
2021/05/10 02:32:43;;;;;;;11.80;6.90;;;;;;;14.82;86.27;99918.25;5017134;28;20145;-71
2021/05/10 02:35:11;;;;;;;12.15;6.38;;;;;;;14.85;85.65;99910.00;5018989;28;20160;-71
2021/05/10 02:37:38;;;;;;;12.20;6.90;;;;;;;14.81;85.74;99917.34;5018230;28;20062;-71
2021/05/10 02:40:07;;;;;;;13.00;7.30;;;;;;;14.80;85.78;99909.44;5016416;28;20065;-68
2021/05/10 02:42:34;;;;;;;15.18;6.90;;;;;;;14.80;85.50;99912.13;5016529;28;20062;-68
2021/05/10 02:45:01;;;;;;;11.38;6.00;;;;;;;14.76;85.60;99908.75;5017070;28;20061;-68
2021/05/10 02:47:28;;;;;;;13.10;6.88;;;;;;;14.83;85.21;99906.53;5016022;28;20053;-68
2021/05/10 02:49:56;;;;;;;14.90;6.43;;;;;;;14.83;85.03;99910.09;5018166;28;20115;-68
2021/05/10 02:52:23;;;;;;;11.18;6.20;;;;;;;14.83;84.94;99903.84;5015704;28;20061;-68
2021/05/10 02:54:51;;;;;;;11.50;6.30;;;;;;;14.82;84.91;99905.66;5014704;28;20065;-68
2021/05/10 02:57:18;;;;;;;9.40;5.78;;;;;;;14.87;84.53;99908.91;5019179;28;20058;-69
2021/05/10 02:59:45;;;;;;;12.95;6.68;;;;;;;14.87;84.45;99913.44;5012625;28;20061;-68
2021/05/10 03:02:12;;;;;;;12.38;5.97;;;;;;;14.81;84.79;99909.31;5016406;28;20073;-68
2021/05/10 03:04:39;;;;;;;10.20;6.55;;;;;;;14.84;84.15;99894.84;5014587;28;20057;-68
2021/05/10 03:07:07;;;;;;;10.23;6.30;;;;;;;14.80;84.87;99898.69;5017250;28;20055;-68
2021/05/10 03:09:34;;;;;;;13.52;7.45;;;;;;;14.77;84.84;99893.50;5015550;28;20069;-68
2021/05/10 03:12:00;;;;;;;11.23;5.47;;;;;;;14.80;84.49;99893.31;5016827;28;20074;-68
2021/05/10 03:14:27;;;;;;;11.75;5.63;;;;;;;14.79;84.18;99880.84;5014721;28;20057;-68
2021/05/10 03:16:54;;;;;;;10.70;5.82;;;;;;;14.78;84.16;99881.78;5017039;28;20061;-68
2021/05/10 03:19:21;;;;;;;12.45;5.80;;;;;;;14.80;83.89;99871.84;5019814;28;20152;-68
2021/05/10 03:21:48;;;;;;;12.75;6.70;;;;;;;14.80;83.43;99872.69;5012498;28;20064;-68
2021/05/10 03:24:16;;;;;;;10.18;6.15;;;;;;;14.74;84.08;99873.06;5017095;28;20415;-68
2021/05/10 03:26:42;;;;;;;10.38;5.75;;;;;;;14.74;84.09;99860.53;5015751;28;20072;-68
2021/05/10 03:29:09;;;;;;;10.65;6.07;;;;;;;14.81;83.25;99860.13;5020877;28;20356;-68
2021/05/10 03:31:37;;;;;;;10.07;5.47;;;;;;;14.83;82.98;99855.50;5021657;28;20068;-68
2021/05/10 03:34:05;;;;;;;12.65;6.43;;;;;;;14.84;82.62;99858.09;5020093;28;20862;-69
2021/05/10 03:36:31;;;;;;;11.52;6.18;;;;;;;14.86;82.94;99849.94;5018401;28;20064;-68
2021/05/10 03:38:59;;;;;;;9.80;4.90;;;;;;;14.91;82.38;99858.53;5020753;28;20156;-68
2021/05/10 03:41:27;;;;;;;11.35;5.32;;;;;;;14.91;81.97;99858.53;5016286;28;20491;-68
2021/05/10 03:43:56;;;;;;;13.77;6.13;;;;;;;14.89;81.88;99845.22;5021838;28;20060;-68
2021/05/10 03:46:24;;;;;;;11.00;5.45;;;;;;;14.87;82.03;99847.16;5016991;28;20551;-68
2021/05/10 03:48:51;;;;;;;11.25;5.72;;;;;;;14.85;82.28;99842.84;5020506;28;20061;-68
2021/05/10 03:51:18;;;;;;;12.63;5.82;;;;;;;14.90;81.80;99838.03;5017928;28;20135;-68
2021/05/10 03:53:45;;;;;;;14.30;6.25;;;;;;;14.89;81.87;99847.91;5020728;28;20061;-68
2021/05/10 03:56:12;;;;;;;10.95;5.78;;;;;;;14.87;81.91;99851.66;5018998;28;20053;-68
2021/05/10 03:58:40;;;;;;;10.93;6.00;;;;;;;14.89;81.63;99849.75;5019394;28;22863;-68
2021/05/10 04:01:09;;;;;;;12.07;5.82;;;;;;;14.86;81.89;99842.72;5020889;28;20065;-68
2021/05/10 04:03:39;;;;;;;11.85;5.85;;;;;;;14.87;81.39;99862.41;5017291;28;20444;-68
2021/05/10 04:09:09;;;;;;;10.65;5.70;;;;;;;15.15;78.62;99874.88;5012514;28;20531;-72
2021/05/10 04:14:24;;;;;;;10.75;5.38;;;;;;;15.39;76.98;99890.31;5019421;28;20065;-73
2021/05/10 04:16:51;;;;;;;9.13;5.50;;;;;;;15.52;76.01;99890.38;5019054;28;20058;-73
2021/05/10 04:19:19;;;;;;;10.43;5.18;;;;;;;15.79;73.83;99898.41;5018274;28;20065;-73
2021/05/10 04:21:45;;;;;;;9.48;5.25;;;;;;;15.90;73.39;99913.81;5020868;28;20061;-73
2021/05/10 04:24:12;;;;;;;11.98;4.85;;;;;;;15.95;73.02;99930.50;5016422;28;20061;-74
2021/05/10 04:26:39;;;;;;;9.85;5.53;;;;;;;16.07;72.02;99937.69;5020026;28;20477;-73
2021/05/10 04:29:05;;;;;;;11.35;5.05;;;;;;;15.96;73.51;99941.16;5013603;28;20164;-73
2021/05/10 04:31:33;;;;;;;10.98;5.57;;;;;;;15.77;74.79;99954.16;5020025;28;20344;-73
2021/05/10 04:34:00;;;;;;;11.13;5.40;;;;;;;15.74;75.46;99975.81;5017026;28;20080;-74
2021/05/10 04:36:27;;;;;;;13.45;6.60;;;;;;;15.50;78.39;99980.03;5018295;28;20483;-72
2021/05/10 04:38:53;;;;;;;12.07;7.00;;;;;;;15.28;80.21;100009.28;5016090;28;20599;-71
2021/05/10 04:41:20;;;;;;;15.00;7.75;;;;;;;15.06;82.41;100025.94;5019845;28;20431;-72
2021/05/10 04:43:47;;;;;;;15.00;7.25;;;;;;;14.70;84.95;100038.03;5019301;28;20469;-71
2021/05/10 04:46:14;;;;;;;15.18;7.20;;;;;;;14.46;86.75;100014.38;5018895;28;20072;-70
2021/05/10 04:48:42;;;;;;;14.93;7.78;;;;;;;14.34;87.46;100007.94;5032263;28;20065;-70
2021/05/10 04:51:09;;;;;;;14.25;8.73;;;;;;;14.25;87.58;99987.06;5020297;28;20257;-71
2021/05/10 04:53:36;;;;;;;15.40;8.73;;;;;;;14.18;88.12;99940.94;5016615;28;20142;-70
2021/05/10 04:56:02;;;;;;;17.42;9.65;;;;;;;14.12;88.63;99935.09;5020021;28;20441;-70
2021/05/10 04:58:29;;;;;;;16.13;8.90;;;;;;;14.05;89.25;99934.59;5019867;28;20061;-71
2021/05/10 05:00:56;;;;;;;16.35;9.32;;;;;;;14.02;89.96;99958.94;5018756;28;20157;-71
2021/05/10 05:03:23;;;;;;;15.45;8.55;;;;;;;14.02;89.72;99988.44;5021311;28;20333;-71
2021/05/10 05:05:52;;;;;;;14.65;8.32;;;;;;;13.98;90.34;99997.63;5015346;28;20069;-72
2021/05/10 05:08:18;;;;;;;14.38;8.23;;;;;;;13.94;90.65;100015.69;5020078;28;20875;-72
2021/05/10 05:10:45;;;;;;;13.07;7.80;;;;;;;13.94;90.12;100015.69;5016016;28;20558;-72
2021/05/10 05:13:20;;;;;;;15.75;8.27;;;;;;;13.92;89.64;99981.88;5018966;28;20069;-73
2021/05/10 05:15:47;;;;;;;13.18;7.10;;;;;;;13.88;89.87;100026.81;5014220;28;20341;-72
2021/05/10 05:18:14;;;;;;;13.50;6.25;;;;;;;13.85;89.19;100066.34;5019817;28;20068;-73
2021/05/10 05:20:41;;;;;;;12.98;5.53;;;;;;;13.84;88.32;100065.47;5017939;28;20061;-73
2021/05/10 05:23:20;;;;;;;13.52;5.40;;;;;;;13.74;88.78;100088.38;5018056;28;20065;-73
2021/05/10 05:25:48;;;;;;;9.15;4.90;;;;;;;13.70;88.57;100117.19;5016236;28;20057;-73
2021/05/10 05:28:15;;;;;;;10.48;4.25;;;;;;;13.71;88.76;100131.47;5019374;28;20063;-73
2021/05/10 05:30:41;;;;;;;10.07;5.10;;;;;;;13.67;89.20;100138.81;5015722;28;20061;-71
2021/05/10 05:33:08;;;;;;;10.88;5.68;;;;;;;13.65;89.66;100151.44;5020586;28;20057;-73
2021/05/10 05:35:35;;;;;;;10.68;5.18;;;;;;;13.62;89.70;100165.00;5017759;28;20069;-71
2021/05/10 05:38:04;;;;;;;10.52;5.28;;;;;;;13.62;90.12;100173.03;5020331;28;20071;-71
2021/05/10 05:40:31;;;;;;;10.32;4.88;;;;;;;13.55;90.01;100187.75;5018859;28;20511;-71
2021/05/10 05:42:58;;;;;;;9.07;3.95;;;;;;;13.49;90.19;100201.50;5017527;28;20058;-71
2021/05/10 05:45:25;;;;;;;9.32;3.67;;;;;;;13.44;90.07;100197.22;5019447;28;20147;-68
2021/05/10 05:47:53;;;;;;;9.68;4.10;;;;;;;13.39;90.66;100193.94;5017546;28;20160;-68
2021/05/10 05:50:20;;;;;;;10.00;3.70;;;;;;;13.33;90.86;100191.59;5017502;28;20068;-67
2021/05/10 05:52:54;;;;;;;11.15;4.30;;;;;;;13.36;91.34;100190.56;5015669;28;20062;-68
2021/05/10 05:55:21;;;;;;;9.07;3.80;;;;;;;13.36;91.01;100185.19;5019609;28;20064;-68
2021/05/10 05:57:48;;;;;;;10.18;3.80;;;;;;;13.42;90.52;100184.88;5016770;28;20062;-68
2021/05/10 06:00:16;;;;;;;9.68;3.90;;;;;;;13.48;90.39;100197.06;5019044;28;20061;-68
2021/05/10 06:02:43;;;;;;;9.60;3.45;;;;;;;13.58;90.56;100214.38;5016772;28;20068;-69
2021/05/10 06:05:12;;;;;;;7.65;4.57;;;;;;;13.65;90.25;100221.13;5018302;28;20060;-68
2021/05/10 06:07:49;;;;;;;13.27;5.40;;;;;;;13.71;90.03;100217.28;5015401;28;20545;-70
2021/05/10 06:10:19;;;;;;;12.38;6.15;;;;;;;13.79;90.05;100220.38;5020343;28;20060;-68
2021/05/10 06:12:48;;;;;;;15.55;7.88;;;;;;;13.81;89.97;100213.13;5014938;28;20103;-68
2021/05/10 06:15:16;;;;;;;14.88;7.63;;;;;;;13.87;90.11;100212.78;5017249;28;20095;-69
2021/05/10 06:17:44;;;;;;;16.23;8.35;;;;;;;13.94;90.00;100218.66;5015545;28;20071;-69
2021/05/10 06:20:13;;;;;;;15.55;7.55;;;;;;;14.05;90.07;100221.63;5020547;28;20329;-69
2021/05/10 06:22:40;;;;;;;14.07;7.40;;;;;;;14.08;88.93;100240.22;5018496;28;20068;-69
2021/05/10 06:25:09;;;;;;;13.48;6.32;;;;;;;14.05;87.99;100236.84;5017731;28;20152;-69
2021/05/10 06:27:36;;;;;;;12.10;7.05;;;;;;;14.01;88.38;100239.72;5034050;28;20368;-69
2021/05/10 06:30:03;;;;;;;13.00;5.93;;;;;;;14.08;88.10;100234.88;5018339;28;20152;-69
2021/05/10 06:32:31;;;;;;;10.80;4.75;;;;;;;14.07;87.82;100227.75;5019565;28;20069;-69
2021/05/10 06:34:59;;;;;;;11.30;4.70;;;;;;;14.06;87.47;100238.56;5016438;28;20084;-69
2021/05/10 06:37:29;;;;;;;10.30;4.47;;;;;;;14.04;87.09;100241.34;5017503;28;20061;-69
2021/05/10 06:39:56;;;;;;;9.80;4.05;;;;;;;13.99;87.07;100240.72;5010850;28;20068;-69
2021/05/10 06:42:24;;;;;;;10.68;4.22;;;;;;;13.98;86.98;100245.22;5017572;28;20084;-69
2021/05/10 06:44:53;;;;;;;9.40;4.40;;;;;;;13.98;87.68;100249.75;5013113;28;20112;-68
2021/05/10 06:47:20;;;;;;;11.98;4.60;;;;;;;14.01;87.06;100249.53;5013540;28;20053;-68
2021/05/10 06:49:47;;;;;;;9.35;4.68;;;;;;;14.01;87.20;100246.88;5015546;28;20108;-68
2021/05/10 06:52:14;;;;;;;10.00;5.05;;;;;;;13.97;86.69;100253.38;5016390;28;20111;-68
2021/05/10 06:54:41;;;;;;;11.43;5.15;;;;;;;14.01;86.37;100271.91;5015124;28;20053;-68
2021/05/10 06:57:07;;;;;;;8.60;4.68;;;;;;;14.05;87.02;100267.22;5020629;28;20564;-68
2021/05/10 06:59:34;;;;;;;13.25;5.57;;;;;;;13.98;86.69;100260.47;5013133;28;20065;-67
2021/05/10 07:02:01;;;;;;;9.82;5.45;;;;;;;13.98;87.42;100264.00;5022255;28;20155;-68
2021/05/10 07:04:28;;;;;;;11.13;6.00;;;;;;;13.95;87.32;100271.38;5026235;28;20061;-68
2021/05/10 07:06:56;;;;;;;10.32;5.15;;;;;;;13.90;88.43;100308.28;5022629;28;20056;-68
2021/05/10 07:09:22;;;;;;;12.18;5.05;;;;;;;13.61;89.22;100329.50;5021626;28;20057;-68
2021/05/10 07:11:50;;;;;;;8.00;3.22;;;;;;;13.29;86.95;100318.59;5020509;28;20098;-67
2021/05/10 07:14:17;;;;;;;7.05;3.05;;;;;;;13.19;86.94;100318.19;5020669;28;20057;-67
2021/05/10 07:16:43;;;;;;;6.22;2.78;;;;;;;13.08;86.82;100333.97;5022742;28;20057;-67
2021/05/10 07:19:10;;;;;;;8.38;3.30;;;;;;;13.04;86.87;100340.41;5020984;28;20059;-67
2021/05/10 07:21:38;;;;;;;9.48;4.30;;;;;;;12.99;86.55;100358.50;5021691;28;20057;-67
2021/05/10 07:24:06;;;;;;;8.68;3.53;;;;;;;12.97;86.79;100373.78;5021893;28;20123;-67
2021/05/10 07:26:34;;;;;;;9.45;4.05;;;;;;;13.04;87.93;100378.78;5022581;28;20429;-67
2021/05/10 07:29:01;;;;;;;9.57;4.28;;;;;;;13.12;87.61;100375.72;5024662;28;20065;-67
2021/05/10 07:31:27;;;;;;;11.80;4.20;;;;;;;13.13;87.14;100372.09;5017668;28;20065;-67
2021/05/10 07:33:54;;;;;;;8.50;3.60;;;;;;;13.16;87.51;100384.44;5022446;28;20514;-66
2021/05/10 07:36:21;;;;;;;9.30;4.07;;;;;;;13.09;87.58;100386.56;5018943;28;20072;-67
2021/05/10 07:38:48;;;;;;;11.93;4.50;;;;;;;13.07;87.38;100400.03;5022582;28;20057;-69
2021/05/10 07:41:16;;;;;;;8.45;4.10;;;;;;;13.05;87.32;100403.75;5020366;28;20057;-67
2021/05/10 07:43:42;;;;;;;11.07;4.45;;;;;;;13.08;87.12;100422.34;5024197;28;20081;-69
2021/05/10 07:46:09;;;;;;;8.75;4.28;;;;;;;13.18;87.64;100438.84;5021746;28;20061;-67
2021/05/10 07:48:36;;;;;;;12.23;4.30;;;;;;;13.20;87.31;100432.47;5019463;28;20061;-67
2021/05/10 07:51:03;;;;;;;10.55;3.88;;;;;;;13.14;86.61;100442.59;5022627;28;20057;-67
2021/05/10 07:53:30;;;;;;;10.23;4.38;;;;;;;13.17;86.99;100443.31;5019713;28;20065;-67
2021/05/10 07:55:56;;;;;;;10.43;4.25;;;;;;;13.39;87.33;100447.66;5024431;28;20092;-72
2021/05/10 07:58:25;;;;;;;8.65;4.18;;;;;;;13.52;85.72;100438.06;5033138;28;20479;-72
2021/05/10 08:00:54;;;;;;;11.13;4.63;;;;;;;13.70;85.76;100435.38;5022730;28;20504;-74
2021/05/10 08:03:23;;;;;;;10.85;4.78;;;;;;;14.23;85.35;100441.53;5017340;28;20471;-72
2021/05/10 08:05:51;;;;;;;11.43;4.50;;;;;;;14.24;83.90;100445.97;5019152;28;20057;-72
2021/05/10 08:08:19;;;;;;;7.50;3.45;;;;;;;14.14;83.02;100459.00;5019236;28;20049;-71
2021/05/10 08:10:46;;;;;;;8.65;3.63;;;;;;;14.15;83.92;100466.13;5018369;28;20061;-72
2021/05/10 08:13:13;;;;;;;9.55;4.95;;;;;;;13.72;83.43;100477.22;5016865;28;20391;-72
2021/05/10 08:15:41;;;;;;;10.25;4.93;;;;;;;13.58;84.30;100483.28;5017722;28;20061;-71
2021/05/10 08:18:08;;;;;;;9.32;4.88;;;;;;;13.58;84.80;100485.97;5021013;28;20057;-71
2021/05/10 08:20:38;;;;;;;8.70;3.88;;;;;;;13.39;82.61;100495.88;5022327;28;20065;-72
2021/05/10 08:23:05;;;;;;;10.10;3.90;;;;;;;13.33;82.69;100491.72;5019742;28;20061;-72
2021/05/10 08:25:32;;;;;;;11.65;4.32;;;;;;;13.43;83.13;100494.78;5023014;28;20360;-71
2021/05/10 08:27:59;;;;;;;9.13;4.80;;;;;;;13.31;82.22;100490.00;5020825;28;20057;-71
2021/05/10 08:30:26;;;;;;;12.20;4.18;;;;;;;13.21;82.34;100493.13;5022725;28;20060;-71
2021/05/10 08:32:57;;;;;;;13.07;3.50;;;;;;;13.12;81.11;100476.63;5020754;28;20057;-72
2021/05/10 08:35:27;;;;;;;8.32;3.30;;;;;;;13.19;80.62;100475.38;5017226;28;20062;-73
2021/05/10 08:37:59;;;;;;;9.10;3.40;;;;;;;13.16;79.52;100467.50;5020890;28;20053;-73
2021/05/10 08:40:26;;;;;;;8.20;3.17;;;;;;;13.31;79.38;100481.97;5016866;28;20091;-73
2021/05/10 08:42:53;;;;;;;8.95;3.28;;;;;;;13.31;79.34;100495.34;5011921;28;20188;-73
2021/05/10 08:45:20;;;;;;;12.27;3.17;;;;;;;13.30;79.32;100498.97;4999528;28;20712;-72
2021/05/10 08:47:48;;;;;;;9.07;2.83;;;;;;;13.26;78.54;100512.53;5003759;28;20393;-72
2021/05/10 08:50:16;;;;;;;14.82;2.97;;;;;;;13.73;74.92;100508.47;5000106;28;20065;-72
2021/05/10 08:52:43;;;;;;;7.68;2.70;;;;;;;13.67;74.77;100519.50;5004746;28;20064;-72
2021/05/10 08:55:14;;;;;;;6.53;2.40;;;;;;;14.05;72.32;100516.69;5003354;28;20069;-72
2021/05/10 08:57:41;;;;;;;6.30;2.47;;;;;;;14.82;72.33;100511.78;5022483;28;20057;-71
2021/05/10 09:00:12;;;;;;;8.77;2.50;;;;;;;14.57;71.63;100516.63;5020163;28;20068;-71
2021/05/10 09:02:40;;;;;;;6.72;2.47;;;;;;;15.00;70.71;100540.31;5019550;28;20062;-71
2021/05/10 09:05:16;;;;;;;9.88;2.72;;;;;;;14.95;70.07;100542.38;5021211;28;20061;-71
2021/05/10 09:07:43;;;;;;;9.70;2.50;;;;;;;14.76;69.64;100545.19;5018580;28;20399;-70
2021/05/10 09:10:12;;;;;;;11.40;3.25;;;;;;;14.78;69.15;100555.84;5022688;28;20057;-71
2021/05/10 09:12:45;;;;;;;9.43;2.72;;;;;;;14.53;68.55;100552.63;5019452;28;20284;-70
2021/05/10 09:15:16;;;;;;;9.73;2.90;;;;;;;14.62;68.55;100551.31;5020028;28;20065;-70
2021/05/10 09:17:47;;;;;;;9.63;2.97;;;;;;;14.63;69.33;100557.56;5019076;28;20061;-70
2021/05/10 09:20:17;;;;;;;10.20;2.92;;;;;;;14.95;70.94;100561.19;5019094;28;20061;-71
2021/05/10 09:22:49;;;;;;;10.07;3.08;;;;;;;14.83;69.76;100562.72;5020078;28;20073;-70
2021/05/10 09:25:17;;;;;;;11.32;3.05;;;;;;;14.75;71.66;100565.81;5017609;28;20061;-70
2021/05/10 09:27:45;;;;;;;11.27;3.17;;;;;;;14.86;69.16;100565.22;5019894;28;20068;-71
2021/05/10 09:30:18;;;;;;;9.98;2.80;;;;;;;15.00;70.13;100577.03;5020791;28;20053;-71
2021/05/10 09:32:51;;;;;;;8.90;2.47;;;;;;;14.78;68.88;100582.72;5030322;28;20053;-71
2021/05/10 09:35:25;;;;;;;6.10;2.50;;;;;;;14.69;68.14;100597.50;5020586;28;20077;-70
2021/05/10 09:38:06;;;;;;;9.32;2.85;;;;;;;14.69;68.44;100595.69;5018577;28;20061;-71
2021/05/10 09:40:43;;;;;;;15.45;3.10;;;;;;;14.83;69.16;100600.34;5017420;28;20091;-71
2021/05/10 09:43:10;;;;;;;12.07;3.00;;;;;;;14.62;68.49;100614.88;5016859;28;20065;-71
2021/05/10 09:45:40;;;;;;;13.57;3.33;;;;;;;14.41;68.76;100620.41;5018658;28;20069;-70
2021/05/10 09:48:09;;;;;;;17.25;3.45;;;;;;;14.47;68.62;100624.56;5012632;28;20057;-71
2021/05/10 09:50:39;;;;;;;11.65;3.40;;;;;;;14.25;68.83;100636.44;5015463;28;20077;-69
2021/05/10 09:53:08;;;;;;;13.85;3.90;;;;;;;14.20;68.66;100628.59;5014421;28;20452;-69
2021/05/10 09:55:42;;;;;;;16.40;5.00;;;;;;;14.19;69.05;100642.94;5019311;28;20065;-71
2021/05/10 09:58:09;;;;;;;15.80;3.85;;;;;;;14.34;69.75;100637.78;5013488;28;20658;-70
2021/05/10 10:00:35;;;;;;;15.20;3.92;;;;;;;14.39;69.37;100643.78;5018240;28;20370;-70
2021/05/10 10:03:04;;;;;;;13.05;4.30;;;;;;;14.75;68.65;100635.63;5009907;28;20069;-71
2021/05/10 10:05:31;;;;;;;11.40;4.03;;;;;;;14.82;67.60;100643.38;5016451;28;20157;-71
2021/05/10 10:07:59;;;;;;;15.07;4.80;;;;;;;14.90;67.49;100657.28;5015613;28;20061;-70
2021/05/10 10:10:26;;;;;;;11.25;4.07;;;;;;;15.11;68.28;100650.75;5015831;28;20061;-71
2021/05/10 10:12:53;;;;;;;13.20;4.40;;;;;;;15.07;67.78;100653.69;5017372;28;20061;-71
2021/05/10 10:15:21;;;;;;;11.43;4.32;;;;;;;15.13;69.52;100647.97;5014441;28;20460;-71
2021/05/10 10:17:48;;;;;;;13.85;4.63;;;;;;;15.20;68.15;100651.19;5019593;28;20522;-70
2021/05/10 10:20:18;;;;;;;9.90;4.18;;;;;;;15.06;67.51;100644.75;5013538;28;20069;-71
2021/05/10 10:22:44;;;;;;;13.85;4.32;;;;;;;15.18;68.76;100653.13;5019517;28;20160;-71
2021/05/10 10:25:12;;;;;;;13.32;4.60;;;;;;;15.36;67.64;100657.50;5015025;28;20057;-71
2021/05/10 10:28:00;;;;;;;11.15;4.60;;;;;;;15.67;66.44;100670.09;5018442;28;20065;-70
2021/05/10 10:30:32;;;;;;;11.27;4.10;;;;;;;16.18;65.73;100667.22;5012592;28;20448;-72
2021/05/10 10:33:05;;;;;;;12.70;4.20;;;;;;;16.53;64.26;100658.03;5017286;28;20415;-71
2021/05/10 10:35:37;;;;;;;14.07;4.60;;;;;;;16.44;65.01;100663.00;5019639;28;20406;-71
2021/05/10 10:38:05;;;;;;;10.77;4.30;;;;;;;16.48;63.31;100661.00;5014436;28;20068;-73
2021/05/10 10:40:33;;;;;;;16.25;4.75;;;;;;;17.01;63.33;100668.63;5031042;28;20060;-72
2021/05/10 10:43:24;;;;;;;13.30;5.32;;;;;;;17.13;62.83;100678.69;5014971;28;20068;-73
2021/05/10 10:46:21;;;;;;;13.13;6.07;;;;;;;16.47;63.37;100679.94;5015234;28;20368;-73
2021/05/10 10:48:50;;;;;;;13.50;5.60;;;;;;;17.00;61.96;100683.94;5012812;28;20064;-75
2021/05/10 10:51:18;;;;;;;15.55;6.25;;;;;;;17.38;60.75;100679.81;5017715;28;20148;-72
2021/05/10 10:53:47;;;;;;;15.52;5.93;;;;;;;17.56;60.80;100678.66;5020081;28;20072;-75
2021/05/10 10:56:15;;;;;;;14.85;6.38;;;;;;;17.38;62.72;100678.00;5015650;28;20065;-74
2021/05/10 10:58:44;;;;;;;14.95;5.93;;;;;;;17.46;61.18;100674.81;5020390;28;20064;-73
2021/05/10 11:01:14;;;;;;;12.20;6.20;;;;;;;17.18;62.07;100679.25;5013322;28;20220;-73
2021/05/10 11:03:41;;;;;;;13.55;6.32;;;;;;;17.71;61.28;100677.69;5020301;28;20064;-72
2021/05/10 11:06:09;;;;;;;12.73;5.60;;;;;;;17.63;59.59;100690.78;5011173;28;20061;-73
2021/05/10 11:08:47;;;;;;;12.18;5.95;;;;;;;17.08;59.90;100686.19;5019217;28;20313;-71
2021/05/10 11:11:39;;;;;;;14.30;5.00;;;;;;;17.58;59.27;100700.16;5015086;28;20494;-72
2021/05/10 11:14:11;;;;;;;12.00;4.72;;;;;;;18.00;56.22;100691.16;5015727;28;20711;-72
2021/05/10 11:16:51;;;;;;;12.27;4.50;;;;;;;18.01;56.37;100690.16;5030917;28;20478;-73
2021/05/10 11:19:35;;;;;;;12.38;4.85;;;;;;;18.54;55.84;100692.09;5015640;28;20081;-72
2021/05/10 11:22:03;;;;;;;11.73;5.10;;;;;;;18.38;54.03;100698.53;5013810;28;20065;-69
2021/05/10 11:24:32;;;;;;;13.43;4.60;;;;;;;18.28;55.43;100697.41;5016733;28;20058;-69
2021/05/10 11:27:02;;;;;;;9.48;3.92;;;;;;;18.34;54.60;100705.13;5017230;28;20080;-69
2021/05/10 11:29:50;;;;;;;9.77;4.18;;;;;;;18.67;52.33;100709.19;5016264;28;20058;-69
2021/05/10 11:32:25;;;;;;;12.57;4.18;;;;;;;18.92;52.72;100712.97;5017073;28;20057;-69
2021/05/10 11:34:53;;;;;;;14.93;4.25;;;;;;;18.67;53.76;100704.66;5018388;28;20061;-69